»·PEaware :: DAL156 KPDX-CYVR

DAL156 :: KPDX-CYVR

FLIGHT INFORMATION

Flight Status: Arrived
Operator:
Delta Air Lines
More flights by this operator :: More flights under this callsign
Pilot: Anonymous 27858 (27858)
Aircraft: BOEING 737-800
(B738)
More flights by this aircraft type
Origin: KPDX Portland Intl
United States
Destination: CYVR Vancouver Intl
Canada
More flights between these airports :: More routes between these airports
Route: +KPDX HRMNS5 HRMNS J189-BTG J1-ALDER PAE CYVR
File this flight plan on PilotEdge
Remarks:
Altitude:
(Current/Filed)
33,000ft
Speed:
(Current/Filed)
350kts
Departed: 10-Feb-20 10:53 AM
Arrived: 10-Feb-20 12:07 PM
Distance/Time
Traveled:
218nm/1:14
Distance/Time
To Go:
Arrived

Flight Plot

Page will automatically refresh every two minutes.


Map Options




Map Legend


Flown Route
Filed Route
Departure Airport
Arrival Airport
Navaid (VOR, NDB)
Fix

Horizontal Profiles

Position Reports

Time Latitude Longitude Heading Altitude Ground
Speed
10-Feb-20 10:23 45.589626 -122.599483 51 27ft 0kts
10-Feb-20 10:24 45.589626 -122.599483 51 27ft 0kts
10-Feb-20 10:25 45.589626 -122.599483 51 27ft 0kts
10-Feb-20 10:26 45.589626 -122.599483 51 27ft 0kts
10-Feb-20 10:27 45.589626 -122.599483 51 27ft 0kts
10-Feb-20 10:28 45.589626 -122.599483 51 27ft 0kts
10-Feb-20 10:29 45.589626 -122.599483 51 27ft 0kts
10-Feb-20 10:30 45.589626 -122.599483 51 27ft 0kts
10-Feb-20 10:31 45.589626 -122.599483 51 27ft 0kts
10-Feb-20 10:32 45.589626 -122.599483 51 27ft 0kts
10-Feb-20 10:33 45.589626 -122.599483 51 27ft 0kts
10-Feb-20 10:34 45.589626 -122.599483 51 27ft 0kts
10-Feb-20 10:35 45.589626 -122.599483 51 27ft 0kts
10-Feb-20 10:36 45.589626 -122.599483 51 27ft 0kts
10-Feb-20 10:37 45.589626 -122.599483 51 27ft 0kts
10-Feb-20 10:38 45.589626 -122.599483 51 27ft 0kts
10-Feb-20 10:39 45.589626 -122.599483 51 27ft 0kts
10-Feb-20 10:40 45.589626 -122.599483 51 27ft 0kts
10-Feb-20 10:41 45.589626 -122.599483 51 27ft 0kts
10-Feb-20 10:42 45.589626 -122.599483 51 27ft 0kts
10-Feb-20 10:43 45.589334 -122.600012 51 26ft 0kts
10-Feb-20 10:44 45.589334 -122.600011 51 26ft 0kts
10-Feb-20 10:45 45.588489 -122.599070 121 26ft 10kts
10-Feb-20 10:46 45.587107 -122.595531 118 27ft 11kts
10-Feb-20 10:47 45.583889 -122.589370 120 27ft 17kts
10-Feb-20 10:48 45.581924 -122.584309 119 24ft 11kts
10-Feb-20 10:49 45.581523 -122.583681 161 24ft 0kts
10-Feb-20 10:50 45.581523 -122.583681 161 24ft 0kts
10-Feb-20 10:51 45.580896 -122.584907 298 24ft 11kts
10-Feb-20 10:52 45.597047 -122.626919 298 1006ft 163kts
10-Feb-20 10:53 45.622907 -122.687589 304 2228ft 201kts
10-Feb-20 10:55 45.656812 -122.769570 299 4350ft 254kts
10-Feb-20 10:56 45.661982 -122.871936 256 7056ft 283kts
10-Feb-20 10:57 45.601574 -122.919213 160 10167ft 254kts
10-Feb-20 10:58 45.529063 -122.882281 144 11593ft 300kts
10-Feb-20 10:59 45.452775 -122.816921 146 13438ft 330kts
10-Feb-20 11:00 45.372209 -122.747992 145 15412ft 349kts
10-Feb-20 11:01 45.289595 -122.677563 145 15988ft 345kts
10-Feb-20 11:02 45.205754 -122.606311 145 17937ft 359kts
10-Feb-20 11:03 45.118316 -122.532269 145 19779ft 371kts
10-Feb-20 11:04 45.028455 -122.456453 145 21481ft 383kts
10-Feb-20 11:05 44.935765 -122.377640 135 23052ft 391kts
10-Feb-20 11:06 44.928695 -122.258412 29 24277ft 307kts
10-Feb-20 11:07 45.003078 -122.285880 327 25672ft 307kts
10-Feb-20 11:08 45.070896 -122.361113 327 27066ft 312kts
10-Feb-20 11:09 45.142548 -122.429269 342 28355ft 308kts
10-Feb-20 11:10 45.225615 -122.459432 350 29508ft 311kts
10-Feb-20 11:11 45.311071 -122.481121 350 30567ft 314kts
10-Feb-20 11:12 45.397627 -122.502823 350 31523ft 318kts
10-Feb-20 11:12 45.470534 -122.521166 350 32255ft 321kts
10-Feb-20 11:14 45.573928 -122.547258 350 33194ft 326kts
10-Feb-20 11:15 45.665473 -122.570438 350 33478ft 346kts
10-Feb-20 11:15 45.747256 -122.588230 358 33479ft 365kts
10-Feb-20 11:17 45.865223 -122.572424 3 33497ft 363kts
10-Feb-20 11:17 45.949069 -122.558766 3 33496ft 364kts
10-Feb-20 11:18 46.049569 -122.542357 3 33494ft 364kts
10-Feb-20 11:20 46.167057 -122.523096 3 33513ft 365kts
10-Feb-20 11:20 46.250682 -122.509335 3 33511ft 364kts
10-Feb-20 11:21 46.351423 -122.492705 3 33509ft 364kts
10-Feb-20 11:23 46.468853 -122.473239 3 33533ft 364kts
10-Feb-20 11:23 46.552539 -122.459282 3 33532ft 364kts
10-Feb-20 11:24 46.653276 -122.442487 4 33514ft 364kts
10-Feb-20 11:25 46.751987 -122.425971 355 33474ft 373kts
10-Feb-20 11:26 46.853537 -122.409840 1 33331ft 355kts
10-Feb-20 11:27 46.954300 -122.398001 1 33494ft 367kts
10-Feb-20 11:28 47.055067 -122.385644 1 33494ft 363kts
10-Feb-20 11:29 47.154128 -122.373479 1 33513ft 365kts
10-Feb-20 11:30 47.254172 -122.361135 1 33511ft 364kts
10-Feb-20 11:31 47.355249 -122.348617 1 33509ft 365kts
10-Feb-20 11:32 47.455974 -122.336107 0 33507ft 365kts
10-Feb-20 11:33 47.557400 -122.323455 0 33505ft 365kts
10-Feb-20 11:34 47.658181 -122.310830 0 33502ft 363kts
10-Feb-20 11:35 47.759221 -122.298136 0 33501ft 364kts
10-Feb-20 11:36 47.860993 -122.285288 0 31914ft 368kts
10-Feb-20 11:37 47.959586 -122.288877 347 29566ft 336kts
10-Feb-20 11:38 48.054857 -122.316726 348 27488ft 343kts
10-Feb-20 11:39 48.146419 -122.343283 348 25482ft 349kts
10-Feb-20 11:40 48.241855 -122.371722 348 23351ft 361kts
10-Feb-20 11:41 48.341818 -122.400224 348 21052ft 346kts
10-Feb-20 11:42 48.429566 -122.425943 348 19008ft 301kts
10-Feb-20 11:43 48.507147 -122.448789 348 17176ft 270kts
10-Feb-20 11:44 48.579253 -122.470117 348 18312ft 227kts
10-Feb-20 11:45 48.642466 -122.488897 348 15910ft 261kts
10-Feb-20 11:46 48.717580 -122.526331 325 12713ft 298kts
10-Feb-20 11:47 48.769568 -122.609776 315 12534ft 249kts
10-Feb-20 11:48 48.821395 -122.699685 314 12417ft 293kts
10-Feb-20 11:49 48.875082 -122.793352 314 12014ft 292kts
10-Feb-20 11:50 48.924261 -122.879504 315 11993ft 244kts
10-Feb-20 11:51 48.970434 -122.960455 315 12124ft 245kts
10-Feb-20 11:52 49.015140 -123.039052 314 10788ft 249kts
10-Feb-20 11:53 49.057892 -123.114753 314 10029ft 247kts
10-Feb-20 11:54 49.088287 -123.211283 291 9435ft 233kts
10-Feb-20 11:55 49.103899 -123.300392 291 8618ft 220kts
10-Feb-20 11:56 49.119834 -123.391711 290 7658ft 223kts
10-Feb-20 11:57 49.135581 -123.482591 289 6735ft 214kts
10-Feb-20 11:58 49.166007 -123.555940 339 6033ft 202kts
10-Feb-20 11:59 49.221863 -123.558132 11 5069ft 201kts
10-Feb-20 12:00 49.262703 -123.519940 100 4320ft 195kts
10-Feb-20 12:01 49.233842 -123.455573 100 3387ft 182kts
10-Feb-20 12:02 49.226126 -123.386427 98 2470ft 153kts
10-Feb-20 12:03 49.218855 -123.322443 98 1624ft 151kts
10-Feb-20 12:04 49.211802 -123.259645 99 796ft 148kts
10-Feb-20 12:05 49.205047 -123.199583 100 37ft 131kts
10-Feb-20 12:06 49.201862 -123.176375 127 20ft 17kts
10-Feb-20 12:07 49.206001 -123.208002 99 165ft 140kts
10-Feb-20 12:08 49.201076 -123.174893 0 17ft 0kts

Navigation Log

Ident Type
Flight plan parsing failed, navigation log unavailable